Aviation Digital Data Service (ADDS)

Output produced by METARs form (0208 UTC 26 April 2017)
found at http://www.aviationweather.gov/adds/metars/
 
HSOB 260200Z 32010KT CAVOK 25/M02 Q1012
TAF HSOB 251700Z 2518/2624 36010G20KT CAVOK 
     TEMPO 2603/2609 6000
       
TAF HSSJ 250400Z 2506/2612 21005KT 9999 SCT040 BKN090 
     PROB30 
     TEMPO 2507/2513 18008G18KT 8000 -SHRA FEW045CB BKN090 
     BECMG 2513/2515VRB03KT 9999 SCT040 BKN120 
     TEMPO 2515/2521 15008G18KT 6000 TSRA FEW045CB BKN090
       
TAF HSKA 251700Z 2518/2624 VRB03KT 6000 
     TEMPO 2518/2523 4000 BLSA
       
HSSS 260200Z 34010KT CAVOK 27/M08 Q1011 NOSIG
TAF HSSS 252300Z 2600/2706 36010G20KT CAVOK 
     TEMPO 2604/2609 6000
       
HSPN 260200Z 30008KT CAVOK 24/15 Q1009
TAF HSPN 252300Z 2600/2706 32008KT CAVOK 
     TEMPO 2603/2609 6000 
     BECMG 2609/2611 04012G22KT